KHNS/HNS METAR and TAF weather

Enter ICAO airport designator
Station Type Date Time Source
KHNS METAR 2009/02/14 03:46 UTC NOAA

KHNS 140346Z AUTO 29006KT 10SM FEW008 01/00 A2980 RMK AO2 $


Station Type Date Time Source
KHNS Decoded METAR 2009/02/14 03:46 UTC NOAA

Haines, Haines Airport, AK, United States (KHNS) 59-14-38N 135-30-34W 5M
Feb 13, 2009 - 10:46 PM EST / 2009.02.14 0346 UTC
Wind: from the WNW (290 degrees) at 7 MPH (6 KT):0
Visibility: 10 mile(s):0
Sky conditions: mostly clear
Temperature: 33 F (1 C)
Windchill: 26 F (-3 C):1
Dew Point: 32 F (0 C)
Relative Humidity: 93%
Pressure (altimeter): 29.8 in. Hg (1009 hPa)
ob: KHNS 140346Z AUTO 29006KT 10SM FEW008 01/00 A2980 RMK AO2
cycle: 4

Station Type Date Time Source
KHNS TAF UTC NOAA

Error!


Example: see airport list